sensor_id;sensor_type;location;lat;lon;timestamp;P1;durP1;ratioP1;P2;durP2;ratioP2
1925;SDS011;964;42.606;23.588;2023-07-31T00:01:54;6.80;;;5.60;;
1925;SDS011;964;42.606;23.588;2023-07-31T00:04:21;8.50;;;6.10;;
1925;SDS011;964;42.606;23.588;2023-07-31T00:06:47;5.57;;;5.00;;
1925;SDS011;964;42.606;23.588;2023-07-31T00:09:14;6.00;;;5.50;;
1925;SDS011;964;42.606;23.588;2023-07-31T00:11:40;8.43;;;5.47;;
1925;SDS011;964;42.606;23.588;2023-07-31T00:14:07;8.70;;;5.63;;
1925;SDS011;964;42.606;23.588;2023-07-31T00:16:35;8.90;;;6.17;;
1925;SDS011;964;42.606;23.588;2023-07-31T00:19:01;6.50;;;5.90;;
1925;SDS011;964;42.606;23.588;2023-07-31T00:21:28;6.97;;;6.30;;
1925;SDS011;964;42.606;23.588;2023-07-31T00:23:55;6.07;;;5.50;;
1925;SDS011;964;42.606;23.588;2023-07-31T00:26:22;7.33;;;6.07;;
1925;SDS011;964;42.606;23.588;2023-07-31T00:28:48;6.73;;;5.87;;
1925;SDS011;964;42.606;23.588;2023-07-31T00:31:15;8.23;;;5.70;;
1925;SDS011;964;42.606;23.588;2023-07-31T00:33:43;6.00;;;5.50;;
1925;SDS011;964;42.606;23.588;2023-07-31T00:36:09;6.43;;;5.77;;
1925;SDS011;964;42.606;23.588;2023-07-31T00:38:36;5.90;;;5.30;;
1925;SDS011;964;42.606;23.588;2023-07-31T00:41:02;7.97;;;5.67;;
1925;SDS011;964;42.606;23.588;2023-07-31T00:43:29;7.43;;;6.07;;
1925;SDS011;964;42.606;23.588;2023-07-31T00:45:56;6.17;;;5.57;;
1925;SDS011;964;42.606;23.588;2023-07-31T00:48:23;6.47;;;5.87;;
1925;SDS011;964;42.606;23.588;2023-07-31T00:50:51;5.47;;;5.00;;
1925;SDS011;964;42.606;23.588;2023-07-31T00:53:17;6.67;;;6.07;;
1925;SDS011;964;42.606;23.588;2023-07-31T00:55:44;6.10;;;5.60;;
1925;SDS011;964;42.606;23.588;2023-07-31T00:58:11;8.17;;;6.30;;
1925;SDS011;964;42.606;23.588;2023-07-31T01:00:37;7.13;;;6.43;;
1925;SDS011;964;42.606;23.588;2023-07-31T01:03:04;7.73;;;6.27;;
1925;SDS011;964;42.606;23.588;2023-07-31T01:05:33;15.40;;;8.90;;
1925;SDS011;964;42.606;23.588;2023-07-31T01:08:12;7.30;;;6.20;;
1925;SDS011;964;42.606;23.588;2023-07-31T01:10:45;7.27;;;6.60;;
1925;SDS011;964;42.606;23.588;2023-07-31T01:13:22;16.50;;;8.07;;
1925;SDS011;964;42.606;23.588;2023-07-31T01:15:49;20.80;;;7.43;;
1925;SDS011;964;42.606;23.588;2023-07-31T01:18:16;7.60;;;5.70;;
1925;SDS011;964;42.606;23.588;2023-07-31T01:20:42;6.83;;;6.17;;
1925;SDS011;964;42.606;23.588;2023-07-31T01:23:32;10.30;;;6.93;;
1925;SDS011;964;42.606;23.588;2023-07-31T01:26:06;10.23;;;6.60;;
1925;SDS011;964;42.606;23.588;2023-07-31T01:28:40;7.37;;;6.60;;
1925;SDS011;964;42.606;23.588;2023-07-31T01:31:14;7.50;;;6.07;;
1925;SDS011;964;42.606;23.588;2023-07-31T01:33:46;6.50;;;6.00;;
1925;SDS011;964;42.606;23.588;2023-07-31T01:36:14;8.30;;;6.43;;
1925;SDS011;964;42.606;23.588;2023-07-31T01:38:41;6.93;;;6.23;;
1925;SDS011;964;42.606;23.588;2023-07-31T01:41:09;6.10;;;5.60;;
1925;SDS011;964;42.606;23.588;2023-07-31T01:43:36;9.50;;;5.87;;
1925;SDS011;964;42.606;23.588;2023-07-31T01:46:02;6.70;;;6.10;;
1925;SDS011;964;42.606;23.588;2023-07-31T01:48:29;8.03;;;6.10;;
1925;SDS011;964;42.606;23.588;2023-07-31T01:51:00;6.83;;;6.20;;
1925;SDS011;964;42.606;23.588;2023-07-31T01:53:27;5.63;;;5.03;;
1925;SDS011;964;42.606;23.588;2023-07-31T01:55:54;6.90;;;6.17;;
1925;SDS011;964;42.606;23.588;2023-07-31T01:58:22;7.03;;;5.70;;
1925;SDS011;964;42.606;23.588;2023-07-31T02:00:49;8.37;;;5.53;;
1925;SDS011;964;42.606;23.588;2023-07-31T02:03:15;6.50;;;5.90;;
1925;SDS011;964;42.606;23.588;2023-07-31T02:05:43;8.13;;;7.40;;
1925;SDS011;964;42.606;23.588;2023-07-31T02:08:10;8.93;;;6.73;;
1925;SDS011;964;42.606;23.588;2023-07-31T02:10:37;8.03;;;7.20;;
1925;SDS011;964;42.606;23.588;2023-07-31T02:13:04;7.73;;;6.90;;
1925;SDS011;964;42.606;23.588;2023-07-31T02:15:32;8.20;;;7.40;;
1925;SDS011;964;42.606;23.588;2023-07-31T02:18:00;7.97;;;7.33;;
1925;SDS011;964;42.606;23.588;2023-07-31T02:20:26;9.30;;;7.70;;
1925;SDS011;964;42.606;23.588;2023-07-31T02:22:53;10.27;;;7.73;;
1925;SDS011;964;42.606;23.588;2023-07-31T02:25:19;20.23;;;8.90;;
1925;SDS011;964;42.606;23.588;2023-07-31T02:27:46;10.50;;;9.50;;
1925;SDS011;964;42.606;23.588;2023-07-31T02:30:13;10.13;;;9.17;;
1925;SDS011;964;42.606;23.588;2023-07-31T02:32:41;11.27;;;10.17;;
1925;SDS011;964;42.606;23.588;2023-07-31T02:35:07;12.07;;;10.50;;
1925;SDS011;964;42.606;23.588;2023-07-31T02:37:34;13.27;;;11.93;;
1925;SDS011;964;42.606;23.588;2023-07-31T02:40:01;16.30;;;12.33;;
1925;SDS011;964;42.606;23.588;2023-07-31T02:42:27;19.07;;;14.90;;
1925;SDS011;964;42.606;23.588;2023-07-31T02:44:54;15.20;;;13.73;;
1925;SDS011;964;42.606;23.588;2023-07-31T02:47:21;15.43;;;13.83;;
1925;SDS011;964;42.606;23.588;2023-07-31T02:49:49;16.03;;;14.33;;
1925;SDS011;964;42.606;23.588;2023-07-31T02:52:16;17.90;;;16.00;;
1925;SDS011;964;42.606;23.588;2023-07-31T02:54:42;18.90;;;16.73;;
1925;SDS011;964;42.606;23.588;2023-07-31T02:57:09;18.97;;;16.93;;
1925;SDS011;964;42.606;23.588;2023-07-31T02:59:36;20.17;;;17.67;;
1925;SDS011;964;42.606;23.588;2023-07-31T03:02:02;21.67;;;19.30;;
1925;SDS011;964;42.606;23.588;2023-07-31T03:04:29;24.90;;;21.73;;
1925;SDS011;964;42.606;23.588;2023-07-31T03:06:57;23.73;;;20.87;;
1925;SDS011;964;42.606;23.588;2023-07-31T03:09:24;21.83;;;18.90;;
1925;SDS011;964;42.606;23.588;2023-07-31T03:11:51;22.43;;;20.03;;
1925;SDS011;964;42.606;23.588;2023-07-31T03:14:17;24.57;;;21.23;;
1925;SDS011;964;42.606;23.588;2023-07-31T03:16:44;25.40;;;20.67;;
1925;SDS011;964;42.606;23.588;2023-07-31T03:19:11;25.13;;;21.70;;
1925;SDS011;964;42.606;23.588;2023-07-31T03:21:37;26.30;;;22.60;;
1925;SDS011;964;42.606;23.588;2023-07-31T03:24:05;25.17;;;21.83;;
1925;SDS011;964;42.606;23.588;2023-07-31T03:26:32;27.60;;;22.97;;
1925;SDS011;964;42.606;23.588;2023-07-31T03:28:59;28.10;;;22.10;;
1925;SDS011;964;42.606;23.588;2023-07-31T03:31:25;27.60;;;22.23;;
1925;SDS011;964;42.606;23.588;2023-07-31T03:33:52;26.27;;;22.40;;
1925;SDS011;964;42.606;23.588;2023-07-31T03:36:18;26.47;;;23.20;;
1925;SDS011;964;42.606;23.588;2023-07-31T03:38:45;29.70;;;25.33;;
1925;SDS011;964;42.606;23.588;2023-07-31T03:41:14;26.87;;;23.50;;
1925;SDS011;964;42.606;23.588;2023-07-31T03:43:40;28.13;;;22.77;;
1925;SDS011;964;42.606;23.588;2023-07-31T03:46:07;27.73;;;22.43;;
1925;SDS011;964;42.606;23.588;2023-07-31T03:48:33;28.40;;;25.17;;
1925;SDS011;964;42.606;23.588;2023-07-31T03:51:00;29.80;;;24.00;;
1925;SDS011;964;42.606;23.588;2023-07-31T03:53:27;30.00;;;24.77;;
1925;SDS011;964;42.606;23.588;2023-07-31T03:55:54;29.10;;;25.40;;
1925;SDS011;964;42.606;23.588;2023-07-31T03:58:22;27.50;;;24.13;;
1925;SDS011;964;42.606;23.588;2023-07-31T04:00:48;29.00;;;23.27;;
1925;SDS011;964;42.606;23.588;2023-07-31T04:03:15;27.80;;;23.30;;
1925;SDS011;964;42.606;23.588;2023-07-31T04:05:41;28.67;;;24.47;;
1925;SDS011;964;42.606;23.588;2023-07-31T04:08:08;29.50;;;23.60;;
1925;SDS011;964;42.606;23.588;2023-07-31T04:10:35;26.27;;;23.40;;
1925;SDS011;964;42.606;23.588;2023-07-31T04:13:01;29.77;;;23.97;;
1925;SDS011;964;42.606;23.588;2023-07-31T04:15:29;27.30;;;22.43;;
1925;SDS011;964;42.606;23.588;2023-07-31T04:17:56;28.23;;;22.87;;
1925;SDS011;964;42.606;23.588;2023-07-31T04:20:22;30.30;;;24.20;;
1925;SDS011;964;42.606;23.588;2023-07-31T04:22:49;29.00;;;23.90;;
1925;SDS011;964;42.606;23.588;2023-07-31T04:25:16;28.37;;;23.37;;
1925;SDS011;964;42.606;23.588;2023-07-31T04:27:42;29.43;;;24.20;;
1925;SDS011;964;42.606;23.588;2023-07-31T04:30:09;30.20;;;26.07;;
1925;SDS011;964;42.606;23.588;2023-07-31T04:32:37;29.17;;;24.90;;
1925;SDS011;964;42.606;23.588;2023-07-31T04:35:04;28.63;;;22.87;;
1925;SDS011;964;42.606;23.588;2023-07-31T04:37:31;29.40;;;22.23;;
1925;SDS011;964;42.606;23.588;2023-07-31T04:39:58;28.10;;;23.60;;
1925;SDS011;964;42.606;23.588;2023-07-31T04:42:24;32.67;;;24.33;;
1925;SDS011;964;42.606;23.588;2023-07-31T04:44:51;30.90;;;24.43;;
1925;SDS011;964;42.606;23.588;2023-07-31T04:47:18;28.80;;;23.30;;
1925;SDS011;964;42.606;23.588;2023-07-31T04:49:47;27.60;;;24.30;;
1925;SDS011;964;42.606;23.588;2023-07-31T04:52:13;29.30;;;24.60;;
1925;SDS011;964;42.606;23.588;2023-07-31T04:54:40;30.87;;;24.30;;
1925;SDS011;964;42.606;23.588;2023-07-31T04:57:07;30.00;;;23.80;;
1925;SDS011;964;42.606;23.588;2023-07-31T04:59:33;30.93;;;23.57;;
1925;SDS011;964;42.606;23.588;2023-07-31T05:02:00;31.80;;;23.57;;
1925;SDS011;964;42.606;23.588;2023-07-31T05:04:26;29.87;;;23.67;;
1925;SDS011;964;42.606;23.588;2023-07-31T05:06:55;29.80;;;22.13;;
1925;SDS011;964;42.606;23.588;2023-07-31T05:09:21;28.10;;;21.30;;
1925;SDS011;964;42.606;23.588;2023-07-31T05:11:48;28.40;;;22.50;;
1925;SDS011;964;42.606;23.588;2023-07-31T05:14:15;27.63;;;20.80;;
1925;SDS011;964;42.606;23.588;2023-07-31T05:16:42;27.17;;;22.47;;
1925;SDS011;964;42.606;23.588;2023-07-31T05:19:08;30.57;;;22.87;;
1925;SDS011;964;42.606;23.588;2023-07-31T05:21:35;26.53;;;21.50;;
1925;SDS011;964;42.606;23.588;2023-07-31T05:24:04;28.53;;;22.33;;
1925;SDS011;964;42.606;23.588;2023-07-31T05:26:31;26.67;;;20.83;;
1925;SDS011;964;42.606;23.588;2023-07-31T05:28:57;27.07;;;22.33;;
1925;SDS011;964;42.606;23.588;2023-07-31T05:31:24;23.50;;;20.20;;
1925;SDS011;964;42.606;23.588;2023-07-31T05:33:51;24.30;;;20.60;;
1925;SDS011;964;42.606;23.588;2023-07-31T05:36:17;25.20;;;19.37;;
1925;SDS011;964;42.606;23.588;2023-07-31T05:38:44;25.47;;;19.73;;
1925;SDS011;964;42.606;23.588;2023-07-31T05:41:12;24.27;;;20.37;;
1925;SDS011;964;42.606;23.588;2023-07-31T05:43:39;25.00;;;20.30;;
1925;SDS011;964;42.606;23.588;2023-07-31T05:46:06;23.57;;;19.10;;
1925;SDS011;964;42.606;23.588;2023-07-31T05:48:34;22.03;;;18.30;;
1925;SDS011;964;42.606;23.588;2023-07-31T05:51:01;23.60;;;18.93;;
1925;SDS011;964;42.606;23.588;2023-07-31T05:53:27;20.50;;;17.00;;
1925;SDS011;964;42.606;23.588;2023-07-31T05:55:54;19.93;;;16.73;;
1925;SDS011;964;42.606;23.588;2023-07-31T05:58:22;21.80;;;17.60;;
1925;SDS011;964;42.606;23.588;2023-07-31T06:00:49;21.53;;;18.03;;
1925;SDS011;964;42.606;23.588;2023-07-31T06:03:15;19.40;;;17.30;;
1925;SDS011;964;42.606;23.588;2023-07-31T06:05:42;19.43;;;17.27;;
1925;SDS011;964;42.606;23.588;2023-07-31T06:08:09;20.83;;;17.33;;
1925;SDS011;964;42.606;23.588;2023-07-31T06:10:36;19.00;;;16.90;;
1925;SDS011;964;42.606;23.588;2023-07-31T06:13:02;19.30;;;16.47;;
1925;SDS011;964;42.606;23.588;2023-07-31T06:15:30;18.17;;;15.67;;
1925;SDS011;964;42.606;23.588;2023-07-31T06:17:57;18.07;;;15.50;;
1925;SDS011;964;42.606;23.588;2023-07-31T06:20:27;19.47;;;16.50;;
1925;SDS011;964;42.606;23.588;2023-07-31T06:22:53;15.60;;;14.00;;
1925;SDS011;964;42.606;23.588;2023-07-31T06:25:20;21.73;;;14.77;;
1925;SDS011;964;42.606;23.588;2023-07-31T06:27:47;15.60;;;14.00;;
1925;SDS011;964;42.606;23.588;2023-07-31T06:30:13;13.90;;;12.50;;
1925;SDS011;964;42.606;23.588;2023-07-31T06:32:41;14.60;;;13.10;;
1925;SDS011;964;42.606;23.588;2023-07-31T06:35:08;14.70;;;13.20;;
1925;SDS011;964;42.606;23.588;2023-07-31T06:37:35;13.87;;;12.37;;
1925;SDS011;964;42.606;23.588;2023-07-31T06:40:05;14.50;;;12.30;;
1925;SDS011;964;42.606;23.588;2023-07-31T06:42:33;11.43;;;10.10;;
1925;SDS011;964;42.606;23.588;2023-07-31T06:45:00;11.23;;;10.13;;
1925;SDS011;964;42.606;23.588;2023-07-31T06:47:27;9.67;;;8.67;;
1925;SDS011;964;42.606;23.588;2023-07-31T06:49:55;10.77;;;9.77;;
1925;SDS011;964;42.606;23.588;2023-07-31T06:52:22;9.77;;;8.83;;
1925;SDS011;964;42.606;23.588;2023-07-31T06:55:00;10.13;;;9.17;;
1925;SDS011;964;42.606;23.588;2023-07-31T06:57:28;9.10;;;7.87;;
1925;SDS011;964;42.606;23.588;2023-07-31T06:59:55;9.17;;;7.70;;
1925;SDS011;964;42.606;23.588;2023-07-31T07:02:21;9.23;;;6.83;;
1925;SDS011;964;42.606;23.588;2023-07-31T07:04:48;8.60;;;7.77;;
1925;SDS011;964;42.606;23.588;2023-07-31T07:07:17;9.00;;;8.10;;
1925;SDS011;964;42.606;23.588;2023-07-31T07:09:44;13.90;;;8.13;;
1925;SDS011;964;42.606;23.588;2023-07-31T07:12:11;9.20;;;8.30;;
1925;SDS011;964;42.606;23.588;2023-07-31T07:14:38;8.53;;;7.63;;
1925;SDS011;964;42.606;23.588;2023-07-31T07:17:04;8.27;;;7.30;;
1925;SDS011;964;42.606;23.588;2023-07-31T07:19:31;7.70;;;6.90;;
1925;SDS011;964;42.606;23.588;2023-07-31T07:21:58;9.20;;;7.40;;
1925;SDS011;964;42.606;23.588;2023-07-31T07:24:28;8.43;;;7.63;;
1925;SDS011;964;42.606;23.588;2023-07-31T07:26:55;8.17;;;6.70;;
1925;SDS011;964;42.606;23.588;2023-07-31T07:29:21;6.37;;;5.53;;
1925;SDS011;964;42.606;23.588;2023-07-31T07:31:48;7.70;;;6.90;;
1925;SDS011;964;42.606;23.588;2023-07-31T07:34:15;6.53;;;5.93;;
1925;SDS011;964;42.606;23.588;2023-07-31T07:36:41;7.80;;;6.30;;
1925;SDS011;964;42.606;23.588;2023-07-31T07:39:09;6.97;;;6.30;;
1925;SDS011;964;42.606;23.588;2023-07-31T07:41:38;8.73;;;6.30;;
1925;SDS011;964;42.606;23.588;2023-07-31T07:44:04;6.23;;;5.70;;
1925;SDS011;964;42.606;23.588;2023-07-31T07:46:31;6.60;;;6.00;;
1925;SDS011;964;42.606;23.588;2023-07-31T07:48:57;6.97;;;5.73;;
1925;SDS011;964;42.606;23.588;2023-07-31T07:51:24;6.70;;;5.87;;
1925;SDS011;964;42.606;23.588;2023-07-31T07:53:51;5.70;;;5.20;;
1925;SDS011;964;42.606;23.588;2023-07-31T07:56:17;6.13;;;5.53;;
1925;SDS011;964;42.606;23.588;2023-07-31T07:58:45;6.17;;;5.57;;
1925;SDS011;964;42.606;23.588;2023-07-31T08:01:14;5.30;;;4.90;;
1925;SDS011;964;42.606;23.588;2023-07-31T08:03:41;5.23;;;4.83;;
1925;SDS011;964;42.606;23.588;2023-07-31T08:06:08;5.20;;;4.63;;
1925;SDS011;964;42.606;23.588;2023-07-31T08:08:35;5.13;;;4.63;;
1925;SDS011;964;42.606;23.588;2023-07-31T08:11:02;5.13;;;4.70;;
1925;SDS011;964;42.606;23.588;2023-07-31T08:13:29;4.70;;;4.30;;
1925;SDS011;964;42.606;23.588;2023-07-31T08:15:57;5.60;;;5.10;;
1925;SDS011;964;42.606;23.588;2023-07-31T08:18:24;5.80;;;5.13;;
1925;SDS011;964;42.606;23.588;2023-07-31T08:20:50;5.37;;;4.87;;
1925;SDS011;964;42.606;23.588;2023-07-31T08:23:17;6.90;;;5.47;;
1925;SDS011;964;42.606;23.588;2023-07-31T08:25:44;6.40;;;5.77;;
1925;SDS011;964;42.606;23.588;2023-07-31T08:28:11;6.50;;;4.70;;
1925;SDS011;964;42.606;23.588;2023-07-31T08:30:37;5.90;;;4.97;;
1925;SDS011;964;42.606;23.588;2023-07-31T08:33:06;6.33;;;5.30;;
1925;SDS011;964;42.606;23.588;2023-07-31T08:35:33;5.07;;;4.57;;
1925;SDS011;964;42.606;23.588;2023-07-31T08:37:59;5.57;;;4.97;;
1925;SDS011;964;42.606;23.588;2023-07-31T08:40:26;4.97;;;4.20;;
1925;SDS011;964;42.606;23.588;2023-07-31T08:42:53;4.60;;;4.10;;
1925;SDS011;964;42.606;23.588;2023-07-31T08:45:21;4.83;;;4.30;;
1925;SDS011;964;42.606;23.588;2023-07-31T08:47:49;5.30;;;4.80;;
1925;SDS011;964;42.606;23.588;2023-07-31T08:50:19;4.17;;;3.77;;
1925;SDS011;964;42.606;23.588;2023-07-31T08:52:47;4.50;;;3.77;;
1925;SDS011;964;42.606;23.588;2023-07-31T08:55:14;4.53;;;4.00;;
1925;SDS011;964;42.606;23.588;2023-07-31T08:57:41;4.53;;;4.13;;
1925;SDS011;964;42.606;23.588;2023-07-31T09:00:09;4.60;;;4.13;;
1925;SDS011;964;42.606;23.588;2023-07-31T09:02:37;6.63;;;4.17;;
1925;SDS011;964;42.606;23.588;2023-07-31T09:05:07;4.67;;;4.27;;
1925;SDS011;964;42.606;23.588;2023-07-31T09:07:38;4.93;;;4.43;;
1925;SDS011;964;42.606;23.588;2023-07-31T09:10:06;4.40;;;4.00;;
1925;SDS011;964;42.606;23.588;2023-07-31T09:12:33;5.57;;;4.63;;
1925;SDS011;964;42.606;23.588;2023-07-31T09:15:01;5.20;;;4.80;;
1925;SDS011;964;42.606;23.588;2023-07-31T09:17:28;5.50;;;4.67;;
1925;SDS011;964;42.606;23.588;2023-07-31T09:19:55;4.83;;;4.10;;
1925;SDS011;964;42.606;23.588;2023-07-31T09:22:30;4.60;;;4.20;;
1925;SDS011;964;42.606;23.588;2023-07-31T09:25:03;3.90;;;3.60;;
1925;SDS011;964;42.606;23.588;2023-07-31T09:27:47;4.73;;;4.23;;
1925;SDS011;964;42.606;23.588;2023-07-31T09:30:14;4.00;;;3.70;;
1925;SDS011;964;42.606;23.588;2023-07-31T09:32:42;4.47;;;4.07;;
1925;SDS011;964;42.606;23.588;2023-07-31T09:35:19;5.30;;;3.70;;
1925;SDS011;964;42.606;23.588;2023-07-31T09:37:50;5.30;;;4.50;;
1925;SDS011;964;42.606;23.588;2023-07-31T09:40:29;4.60;;;4.20;;
1925;SDS011;964;42.606;23.588;2023-07-31T09:42:56;9.20;;;4.67;;
1925;SDS011;964;42.606;23.588;2023-07-31T09:45:24;4.40;;;4.00;;
1925;SDS011;964;42.606;23.588;2023-07-31T09:47:51;4.77;;;4.37;;
1925;SDS011;964;42.606;23.588;2023-07-31T09:50:19;4.87;;;4.47;;
1925;SDS011;964;42.606;23.588;2023-07-31T09:52:47;4.30;;;4.00;;
1925;SDS011;964;42.606;23.588;2023-07-31T09:55:14;4.67;;;4.27;;
1925;SDS011;964;42.606;23.588;2023-07-31T09:57:42;8.07;;;4.07;;
1925;SDS011;964;42.606;23.588;2023-07-31T10:00:12;4.33;;;3.73;;
1925;SDS011;964;42.606;23.588;2023-07-31T10:02:40;4.10;;;3.80;;
1925;SDS011;964;42.606;23.588;2023-07-31T10:05:07;4.00;;;3.70;;
1925;SDS011;964;42.606;23.588;2023-07-31T10:07:36;4.50;;;4.10;;
1925;SDS011;964;42.606;23.588;2023-07-31T10:10:05;6.57;;;4.00;;
1925;SDS011;964;42.606;23.588;2023-07-31T10:12:34;5.87;;;4.23;;
1925;SDS011;964;42.606;23.588;2023-07-31T10:15:05;4.50;;;4.10;;
1925;SDS011;964;42.606;23.588;2023-07-31T10:17:33;3.47;;;3.17;;
1925;SDS011;964;42.606;23.588;2023-07-31T10:20:02;7.60;;;3.73;;
1925;SDS011;964;42.606;23.588;2023-07-31T10:22:30;3.50;;;3.20;;
1925;SDS011;964;42.606;23.588;2023-07-31T10:24:57;4.40;;;4.00;;
1925;SDS011;964;42.606;23.588;2023-07-31T10:27:25;3.63;;;3.43;;
1925;SDS011;964;42.606;23.588;2023-07-31T10:29:52;4.43;;;4.10;;
1925;SDS011;964;42.606;23.588;2023-07-31T10:32:23;3.83;;;3.43;;
1925;SDS011;964;42.606;23.588;2023-07-31T10:34:51;4.23;;;3.73;;
1925;SDS011;964;42.606;23.588;2023-07-31T10:37:22;5.00;;;3.33;;
1925;SDS011;964;42.606;23.588;2023-07-31T10:39:56;4.10;;;3.80;;
1925;SDS011;964;42.606;23.588;2023-07-31T10:42:27;3.80;;;3.47;;
1925;SDS011;964;42.606;23.588;2023-07-31T10:44:56;4.00;;;3.60;;
1925;SDS011;964;42.606;23.588;2023-07-31T10:47:25;3.70;;;3.40;;
1925;SDS011;964;42.606;23.588;2023-07-31T10:49:52;4.13;;;3.70;;
1925;SDS011;964;42.606;23.588;2023-07-31T10:52:19;3.60;;;3.30;;
1925;SDS011;964;42.606;23.588;2023-07-31T10:54:49;3.83;;;3.40;;
1925;SDS011;964;42.606;23.588;2023-07-31T10:57:19;3.40;;;3.10;;
1925;SDS011;964;42.606;23.588;2023-07-31T10:59:46;3.20;;;3.00;;
1925;SDS011;964;42.606;23.588;2023-07-31T11:02:23;4.10;;;3.00;;
1925;SDS011;964;42.606;23.588;2023-07-31T11:05:07;3.10;;;2.80;;
1925;SDS011;964;42.606;23.588;2023-07-31T11:07:47;3.50;;;3.20;;
1925;SDS011;964;42.606;23.588;2023-07-31T11:10:16;3.30;;;3.00;;
1925;SDS011;964;42.606;23.588;2023-07-31T11:12:44;2.53;;;2.33;;
1925;SDS011;964;42.606;23.588;2023-07-31T11:15:12;3.27;;;2.77;;
1925;SDS011;964;42.606;23.588;2023-07-31T11:17:40;3.20;;;2.97;;
1925;SDS011;964;42.606;23.588;2023-07-31T11:20:07;2.90;;;2.70;;
1925;SDS011;964;42.606;23.588;2023-07-31T11:22:34;2.90;;;2.70;;
1925;SDS011;964;42.606;23.588;2023-07-31T11:25:01;2.57;;;2.37;;
1925;SDS011;964;42.606;23.588;2023-07-31T11:27:29;2.70;;;2.47;;
1925;SDS011;964;42.606;23.588;2023-07-31T11:29:59;2.97;;;2.77;;
1925;SDS011;964;42.606;23.588;2023-07-31T11:32:27;2.73;;;2.53;;
1925;SDS011;964;42.606;23.588;2023-07-31T11:34:55;3.10;;;2.70;;
1925;SDS011;964;42.606;23.588;2023-07-31T11:37:22;2.60;;;2.40;;
1925;SDS011;964;42.606;23.588;2023-07-31T11:39:58;2.80;;;2.50;;
1925;SDS011;964;42.606;23.588;2023-07-31T11:42:25;2.73;;;2.47;;
1925;SDS011;964;42.606;23.588;2023-07-31T11:44:52;3.00;;;2.50;;
1925;SDS011;964;42.606;23.588;2023-07-31T11:47:19;2.70;;;2.50;;
1925;SDS011;964;42.606;23.588;2023-07-31T11:49:46;2.43;;;2.23;;
1925;SDS011;964;42.606;23.588;2023-07-31T11:52:15;2.60;;;2.40;;
1925;SDS011;964;42.606;23.588;2023-07-31T11:54:44;2.60;;;2.40;;
1925;SDS011;964;42.606;23.588;2023-07-31T11:57:12;2.93;;;2.73;;
1925;SDS011;964;42.606;23.588;2023-07-31T11:59:39;3.23;;;2.70;;
1925;SDS011;964;42.606;23.588;2023-07-31T12:02:06;3.00;;;2.80;;
1925;SDS011;964;42.606;23.588;2023-07-31T12:04:33;2.73;;;2.53;;
1925;SDS011;964;42.606;23.588;2023-07-31T12:07:00;2.43;;;2.23;;
1925;SDS011;964;42.606;23.588;2023-07-31T12:09:28;3.40;;;2.77;;
1925;SDS011;964;42.606;23.588;2023-07-31T12:11:55;3.17;;;2.60;;
1925;SDS011;964;42.606;23.588;2023-07-31T12:14:22;2.73;;;2.53;;
1925;SDS011;964;42.606;23.588;2023-07-31T12:16:54;2.63;;;2.43;;
1925;SDS011;964;42.606;23.588;2023-07-31T12:19:21;3.00;;;2.43;;
1925;SDS011;964;42.606;23.588;2023-07-31T12:21:47;2.30;;;2.20;;
1925;SDS011;964;42.606;23.588;2023-07-31T12:24:15;4.60;;;2.33;;
1925;SDS011;964;42.606;23.588;2023-07-31T12:26:46;2.57;;;2.37;;
1925;SDS011;964;42.606;23.588;2023-07-31T12:29:14;2.97;;;2.72;;
1925;SDS011;964;42.606;23.588;2023-07-31T12:31:41;2.72;;;2.53;;
1925;SDS011;964;42.606;23.588;2023-07-31T12:34:15;2.83;;;2.63;;
1925;SDS011;964;42.606;23.588;2023-07-31T12:36:43;2.90;;;2.65;;
1925;SDS011;964;42.606;23.588;2023-07-31T12:39:10;3.33;;;3.03;;
1925;SDS011;964;42.606;23.588;2023-07-31T12:41:36;3.70;;;2.57;;
1925;SDS011;964;42.606;23.588;2023-07-31T12:44:04;3.47;;;3.15;;
1925;SDS011;964;42.606;23.588;2023-07-31T12:46:31;3.10;;;2.57;;
1925;SDS011;964;42.606;23.588;2023-07-31T12:48:58;3.13;;;2.93;;
1925;SDS011;964;42.606;23.588;2023-07-31T12:51:24;3.30;;;3.00;;
1925;SDS011;964;42.606;23.588;2023-07-31T12:53:51;2.97;;;2.77;;
1925;SDS011;964;42.606;23.588;2023-07-31T12:56:18;2.90;;;2.70;;
1925;SDS011;964;42.606;23.588;2023-07-31T12:58:44;4.13;;;2.40;;
1925;SDS011;964;42.606;23.588;2023-07-31T13:01:12;4.40;;;2.70;;
1925;SDS011;964;42.606;23.588;2023-07-31T13:03:39;4.67;;;4.27;;
1925;SDS011;964;42.606;23.588;2023-07-31T13:06:06;4.50;;;4.10;;
1925;SDS011;964;42.606;23.588;2023-07-31T13:08:32;5.57;;;5.07;;
1925;SDS011;964;42.606;23.588;2023-07-31T13:10:59;5.30;;;4.77;;
1925;SDS011;964;42.606;23.588;2023-07-31T13:13:26;8.30;;;5.10;;
1925;SDS011;964;42.606;23.588;2023-07-31T13:15:52;4.80;;;4.40;;
1925;SDS011;964;42.606;23.588;2023-07-31T13:18:20;4.60;;;4.20;;
1925;SDS011;964;42.606;23.588;2023-07-31T13:20:47;5.13;;;4.50;;
1925;SDS011;964;42.606;23.588;2023-07-31T13:23:13;5.33;;;4.83;;
1925;SDS011;964;42.606;23.588;2023-07-31T13:25:40;4.80;;;4.40;;
1925;SDS011;964;42.606;23.588;2023-07-31T13:28:08;5.33;;;4.00;;
1925;SDS011;964;42.606;23.588;2023-07-31T13:30:34;4.97;;;4.57;;
1925;SDS011;964;42.606;23.588;2023-07-31T13:33:01;5.10;;;4.70;;
1925;SDS011;964;42.606;23.588;2023-07-31T13:35:29;5.70;;;5.20;;
1925;SDS011;964;42.606;23.588;2023-07-31T13:37:56;4.83;;;4.43;;
1925;SDS011;964;42.606;23.588;2023-07-31T13:40:23;5.40;;;4.90;;
1925;SDS011;964;42.606;23.588;2023-07-31T13:42:49;5.77;;;5.27;;
1925;SDS011;964;42.606;23.588;2023-07-31T13:45:16;5.63;;;5.13;;
1925;SDS011;964;42.606;23.588;2023-07-31T13:47:43;5.50;;;5.00;;
1925;SDS011;964;42.606;23.588;2023-07-31T13:50:09;5.30;;;4.80;;
1925;SDS011;964;42.606;23.588;2023-07-31T13:52:37;4.90;;;4.50;;
1925;SDS011;964;42.606;23.588;2023-07-31T13:55:04;5.33;;;4.90;;
1925;SDS011;964;42.606;23.588;2023-07-31T13:57:31;6.40;;;4.23;;
1925;SDS011;964;42.606;23.588;2023-07-31T13:59:58;4.50;;;4.10;;
1925;SDS011;964;42.606;23.588;2023-07-31T14:02:25;7.63;;;4.87;;
1925;SDS011;964;42.606;23.588;2023-07-31T14:04:51;5.40;;;4.90;;
1925;SDS011;964;42.606;23.588;2023-07-31T14:07:18;6.57;;;6.07;;
1925;SDS011;964;42.606;23.588;2023-07-31T14:09:46;5.47;;;4.97;;
1925;SDS011;964;42.606;23.588;2023-07-31T14:12:12;4.87;;;4.47;;
1925;SDS011;964;42.606;23.588;2023-07-31T14:14:39;5.13;;;4.73;;
1925;SDS011;964;42.606;23.588;2023-07-31T14:17:05;5.73;;;4.80;;
1925;SDS011;964;42.606;23.588;2023-07-31T14:19:32;4.87;;;4.47;;
1925;SDS011;964;42.606;23.588;2023-07-31T14:21:59;5.10;;;4.67;;
1925;SDS011;964;42.606;23.588;2023-07-31T14:24:25;5.27;;;4.77;;
1925;SDS011;964;42.606;23.588;2023-07-31T14:26:54;5.07;;;4.67;;
1925;SDS011;964;42.606;23.588;2023-07-31T14:29:20;7.00;;;5.17;;
1925;SDS011;964;42.606;23.588;2023-07-31T14:31:47;4.80;;;4.40;;
1925;SDS011;964;42.606;23.588;2023-07-31T14:34:13;5.10;;;4.70;;
1925;SDS011;964;42.606;23.588;2023-07-31T14:36:40;4.80;;;4.40;;
1925;SDS011;964;42.606;23.588;2023-07-31T14:39:07;4.27;;;3.97;;
1925;SDS011;964;42.606;23.588;2023-07-31T14:41:34;4.90;;;4.50;;
1925;SDS011;964;42.606;23.588;2023-07-31T14:44:02;4.90;;;4.40;;
1925;SDS011;964;42.606;23.588;2023-07-31T14:46:29;4.70;;;4.30;;
1925;SDS011;964;42.606;23.588;2023-07-31T14:48:55;5.23;;;4.50;;
1925;SDS011;964;42.606;23.588;2023-07-31T14:51:22;4.50;;;4.10;;
1925;SDS011;964;42.606;23.588;2023-07-31T14:53:48;4.20;;;3.90;;
1925;SDS011;964;42.606;23.588;2023-07-31T14:56:15;5.27;;;4.77;;
1925;SDS011;964;42.606;23.588;2023-07-31T14:58:42;5.20;;;4.77;;
1925;SDS011;964;42.606;23.588;2023-07-31T15:01:09;4.20;;;3.90;;
1925;SDS011;964;42.606;23.588;2023-07-31T15:03:36;3.53;;;3.00;;
1925;SDS011;964;42.606;23.588;2023-07-31T15:06:03;3.63;;;2.83;;
1925;SDS011;964;42.606;23.588;2023-07-31T15:08:31;4.00;;;3.70;;
1925;SDS011;964;42.606;23.588;2023-07-31T15:10:57;3.50;;;3.20;;